createdAt,value
2023-04-18T00:01:29.345Z,99520.59
2023-04-18T00:04:14.468Z,99517.44
2023-04-18T00:07:00.359Z,99519.41
2023-04-18T00:09:45.438Z,99518.81
2023-04-18T00:12:31.325Z,99512.31
2023-04-18T00:15:16.529Z,99522.94
2023-04-18T00:18:03.084Z,99506.97
2023-04-18T00:20:47.888Z,99508.91
2023-04-18T00:23:33.691Z,99504.97
2023-04-18T00:26:18.595Z,99508.31
2023-04-18T00:29:06.046Z,99503.59
2023-04-18T00:31:53.105Z,99502.78
2023-04-18T00:34:38.407Z,99504.75
2023-04-18T00:37:22.991Z,99500.03
2023-04-18T00:40:08.570Z,99504.59
2023-04-18T00:42:53.559Z,99502.03
2023-04-18T00:45:38.576Z,99506.97
2023-04-18T00:48:23.888Z,99497.31
2023-04-18T00:51:09.506Z,99501.06
2023-04-18T00:53:55.115Z,99491.03
2023-04-18T00:56:40.439Z,99498.13
2023-04-18T00:59:24.848Z,99496.16
2023-04-18T01:02:09.851Z,99491.03
2023-04-18T01:04:54.789Z,99487.88
2023-04-18T01:07:42.739Z,99485.16
2023-04-18T01:10:28.405Z,99481.59
2023-04-18T01:13:17.695Z,99492.63
2023-04-18T01:16:02.818Z,99482.97
2023-04-18T01:18:48.018Z,99483.56
2023-04-18T01:21:36.547Z,99486.31
2023-04-18T01:24:23.892Z,99486.91
2023-04-18T01:27:12.896Z,99491.03
2023-04-18T01:29:57.978Z,99479.22
2023-04-18T01:32:44.343Z,99482.75
2023-04-18T01:35:30.262Z,99486.13
2023-04-18T01:38:15.421Z,99468.00
2023-04-18T01:41:01.663Z,99477.25
2023-04-18T01:43:46.423Z,99477.63
2023-04-18T01:46:31.370Z,99478.03
2023-04-18T01:49:19.346Z,99478.03
2023-04-18T01:52:04.219Z,99483.94
2023-04-18T01:54:49.264Z,99475.47
2023-04-18T01:57:36.137Z,99476.84
2023-04-18T02:00:21.407Z,99476.06
2023-04-18T02:03:06.279Z,99472.69
2023-04-18T02:05:51.357Z,99473.28
2023-04-18T02:08:36.294Z,99475.47
2023-04-18T02:11:24.573Z,99470.97
2023-04-18T02:14:09.399Z,99469.78
2023-04-18T02:16:54.435Z,99462.69
2023-04-18T02:19:39.467Z,99459.53
2023-04-18T02:22:25.194Z,99457.75
2023-04-18T02:25:10.440Z,99459.53
2023-04-18T02:27:56.078Z,99451.66
2023-04-18T02:30:41.119Z,99450.47
2023-04-18T02:33:25.591Z,99443.97
2023-04-18T02:36:14.505Z,99449.09
2023-04-18T02:39:00.621Z,99443.56
2023-04-18T02:41:45.565Z,99456.16
2023-04-18T02:44:30.507Z,99453.81
2023-04-18T02:47:15.529Z,99450.84
2023-04-18T02:50:03.683Z,99446.31
2023-04-18T02:52:49.088Z,99443.53
2023-04-18T02:55:36.862Z,99451.41
2023-04-18T02:58:22.185Z,99454.38
2023-04-18T03:01:09.885Z,99443.53
2023-04-18T03:04:19.900Z,99447.69
2023-04-18T03:07:17.107Z,99445.72
2023-04-18T03:10:02.433Z,99443.31
2023-04-18T03:12:51.534Z,99439.38
2023-04-18T03:15:37.161Z,99438.22
2023-04-18T03:18:22.449Z,99440.19
2023-04-18T03:21:08.665Z,99443.91
2023-04-18T03:23:54.206Z,99443.69
2023-04-18T03:26:40.166Z,99448.81
2023-04-18T03:29:25.555Z,99445.47
2023-04-18T03:32:10.895Z,99443.50
2023-04-18T03:34:55.616Z,99439.78
2023-04-18T03:37:40.647Z,99446.06
2023-04-18T03:40:26.958Z,99448.06
2023-04-18T03:43:16.610Z,99456.34
2023-04-18T03:46:01.679Z,99452.81
2023-04-18T03:48:47.068Z,99445.16
2023-04-18T03:51:42.737Z,99456.19
2023-04-18T03:54:27.543Z,99449.09
2023-04-18T03:57:12.406Z,99450.28
2023-04-18T03:59:57.437Z,99448.13
2023-04-18T04:02:42.474Z,99456.00
2023-04-18T04:05:30.261Z,99452.25
2023-04-18T04:08:15.817Z,99459.13
2023-04-18T04:11:00.436Z,99457.34
2023-04-18T04:13:45.986Z,99464.22
2023-04-18T04:16:32.911Z,99455.91
2023-04-18T04:19:18.486Z,99465.16
2023-04-18T04:22:33.760Z,99467.84
2023-04-18T04:25:19.531Z,99473.72
2023-04-18T04:28:06.128Z,99472.69
2023-04-18T04:30:58.776Z,99467.16
2023-04-18T04:33:44.287Z,99460.03
2023-04-18T04:36:34.303Z,99461.78
2023-04-18T04:39:20.608Z,99464.69
2023-04-18T04:42:24.722Z,99466.03
2023-04-18T04:45:16.788Z,99464.75
2023-04-18T04:48:01.790Z,99470.19
2023-04-18T04:50:57.892Z,99463.50
2023-04-18T04:53:42.463Z,99466.13
2023-04-18T04:56:27.545Z,99463.00
2023-04-18T04:59:12.455Z,99461.09
2023-04-18T05:01:59.688Z,99469.72
2023-04-18T05:04:44.755Z,99467.63
2023-04-18T05:07:29.959Z,99468.28
2023-04-18T05:10:14.925Z,99466.06
2023-04-18T05:12:59.889Z,99468.91
2023-04-18T05:15:45.000Z,99467.69
2023-04-18T05:18:31.609Z,99475.56
2023-04-18T05:21:17.625Z,99479.34
2023-04-18T05:24:03.012Z,99472.63
2023-04-18T05:26:48.054Z,99472.25
2023-04-18T05:29:33.282Z,99473.25
2023-04-18T05:32:18.476Z,99468.28
2023-04-18T05:35:03.593Z,99463.94
2023-04-18T05:37:48.297Z,99464.44
2023-04-18T05:40:33.370Z,99462.56
2023-04-18T05:43:18.907Z,99458.06
2023-04-18T05:46:04.108Z,99462.88
2023-04-18T05:48:48.871Z,99458.81
2023-04-18T05:51:33.893Z,99462.72
2023-04-18T05:54:20.864Z,99458.22
2023-04-18T05:57:07.858Z,99458.41
2023-04-18T05:59:52.691Z,99448.81
2023-04-18T06:02:37.705Z,99454.38
2023-04-18T06:05:23.222Z,99459.25
2023-04-18T06:08:08.178Z,99460.94
2023-04-18T06:10:53.194Z,99458.13
2023-04-18T06:13:38.276Z,99455.19
2023-04-18T06:16:23.498Z,99460.28
2023-04-18T06:19:08.566Z,99464.41
2023-04-18T06:21:53.549Z,99466.91
2023-04-18T06:24:41.974Z,99460.06
2023-04-18T06:27:37.444Z,99459.19
2023-04-18T06:30:22.536Z,99437.59
2023-04-18T06:33:10.377Z,99457.34
2023-04-18T06:35:55.441Z,99451.38
2023-04-18T06:38:40.197Z,99463.50
2023-04-18T06:41:25.197Z,99460.91
2023-04-18T06:44:09.740Z,99459.16
2023-04-18T06:46:55.160Z,99454.16
2023-04-18T06:49:39.969Z,99462.50
2023-04-18T06:52:25.007Z,99460.34
2023-04-18T06:55:11.150Z,99465.44
2023-04-18T06:57:56.020Z,99455.81
2023-04-18T07:00:41.637Z,99454.84
2023-04-18T07:03:26.549Z,99454.88
2023-04-18T07:06:11.547Z,99458.28
2023-04-18T07:09:00.279Z,99455.66
2023-04-18T07:11:45.148Z,99457.94
2023-04-18T07:14:32.264Z,99453.63
2023-04-18T07:17:18.164Z,99456.84
2023-04-18T07:20:03.448Z,99451.38
2023-04-18T07:22:48.998Z,99435.28
2023-04-18T07:25:34.182Z,99448.13
2023-04-18T07:28:25.369Z,99453.31
2023-04-18T07:31:10.958Z,99445.59
2023-04-18T07:33:55.654Z,99435.38
2023-04-18T07:37:09.615Z,99441.78
2023-04-18T07:39:54.213Z,99450.41
2023-04-18T07:42:45.682Z,99440.75
2023-04-18T07:45:31.177Z,99447.19
2023-04-18T07:48:16.356Z,99448.06
2023-04-18T07:51:02.212Z,99445.25
2023-04-18T07:53:46.920Z,99445.00
2023-04-18T07:56:31.650Z,99450.69
2023-04-18T07:59:17.004Z,99446.22
2023-04-18T08:02:02.280Z,99439.81
2023-04-18T08:05:01.781Z,99435.41
2023-04-18T08:07:59.129Z,99441.41
2023-04-18T08:10:44.254Z,99435.66
2023-04-18T08:13:29.111Z,99441.19
2023-04-18T08:16:16.390Z,99446.19
2023-04-18T08:19:02.509Z,99441.22
2023-04-18T08:21:50.896Z,99444.25
2023-04-18T08:24:39.737Z,99454.22
2023-04-18T08:27:25.183Z,99444.03
2023-04-18T08:30:10.201Z,99455.47
2023-04-18T08:32:54.939Z,99450.81
2023-04-18T08:35:40.287Z,99446.03
2023-04-18T08:38:25.231Z,99445.44
2023-04-18T08:41:10.236Z,99457.31
2023-04-18T08:43:56.988Z,99445.44
2023-04-18T08:46:42.259Z,99451.66
2023-04-18T08:49:27.829Z,99452.31
2023-04-18T08:52:14.210Z,99445.00
2023-04-18T08:54:59.212Z,99453.31
2023-04-18T08:57:44.351Z,99452.75
2023-04-18T09:00:29.912Z,99453.50
2023-04-18T09:03:15.013Z,99443.25
2023-04-18T09:06:11.821Z,99436.06
2023-04-18T09:08:58.388Z,99426.09
2023-04-18T09:11:43.152Z,99425.56
2023-04-18T09:14:27.919Z,99429.09
2023-04-18T09:17:17.580Z,99428.34
2023-04-18T09:20:06.161Z,99428.25
2023-04-18T09:22:53.696Z,99424.44
2023-04-18T09:25:44.423Z,99425.41
2023-04-18T09:28:32.696Z,99408.53
2023-04-18T09:31:18.420Z,99415.63
2023-04-18T09:34:04.620Z,99411.56
2023-04-18T09:37:07.854Z,99417.47
2023-04-18T09:39:53.661Z,99419.06
2023-04-18T09:42:38.692Z,99415.56
2023-04-18T09:45:24.637Z,99412.47
2023-04-18T09:48:09.833Z,99419.13
2023-04-18T09:50:58.007Z,99405.75
2023-04-18T09:53:44.304Z,99415.97
2023-04-18T09:56:33.957Z,99419.69
2023-04-18T09:59:33.385Z,99417.78
2023-04-18T10:02:21.553Z,99414.97
2023-04-18T10:05:08.536Z,99415.25
2023-04-18T10:07:54.627Z,99412.59
2023-04-18T10:10:40.554Z,99424.13
2023-04-18T10:13:28.109Z,99411.53
2023-04-18T10:16:14.101Z,99406.59
2023-04-18T10:19:35.310Z,99411.84
2023-04-18T10:22:27.138Z,99409.72
2023-04-18T10:25:12.295Z,99411.50
2023-04-18T10:27:58.406Z,99412.75
2023-04-18T10:30:43.832Z,99409.06
2023-04-18T10:33:41.987Z,99409.00
2023-04-18T10:36:27.744Z,99403.28
2023-04-18T10:39:25.808Z,99400.41
2023-04-18T10:42:10.747Z,99408.50
2023-04-18T10:45:24.497Z,99390.19
2023-04-18T10:48:30.690Z,99394.53
2023-04-18T10:51:17.742Z,99394.66
2023-04-18T10:54:06.912Z,99390.75
2023-04-18T10:57:04.013Z,99397.88
2023-04-18T10:59:53.107Z,99388.81
2023-04-18T11:02:39.175Z,99394.59
2023-04-18T11:05:27.529Z,99385.88
2023-04-18T11:08:24.829Z,99380.69
2023-04-18T11:11:10.711Z,99378.91
2023-04-18T11:13:56.931Z,99381.53
2023-04-18T11:16:42.299Z,99377.31
2023-04-18T11:19:27.299Z,99375.47
2023-04-18T11:22:13.058Z,99372.38
2023-04-18T11:25:06.578Z,99365.22
2023-04-18T11:27:52.770Z,99369.84
2023-04-18T11:30:39.137Z,99362.22
2023-04-18T11:33:27.574Z,99357.63
2023-04-18T11:36:12.696Z,99364.34
2023-04-18T11:38:57.817Z,99357.19
2023-04-18T11:41:48.755Z,99346.47
2023-04-18T11:44:36.208Z,99348.88
2023-04-18T11:47:33.426Z,99344.75
2023-04-18T11:50:18.050Z,99344.50
2023-04-18T11:53:03.140Z,99347.22
2023-04-18T11:55:55.493Z,99346.28
2023-04-18T11:58:41.614Z,99343.84
2023-04-18T12:01:26.730Z,99338.41
2023-04-18T12:04:11.778Z,99338.28
2023-04-18T12:06:57.000Z,99330.06
2023-04-18T12:09:41.935Z,99335.09
2023-04-18T12:12:27.181Z,99330.38
2023-04-18T12:15:14.290Z,99322.81
2023-04-18T12:18:00.941Z,99323.09
2023-04-18T12:20:50.982Z,99323.44
2023-04-18T12:23:38.346Z,99317.06
2023-04-18T12:26:23.383Z,99316.13
2023-04-18T12:29:08.176Z,99307.91
2023-04-18T12:31:53.398Z,99307.13
2023-04-18T12:34:38.083Z,99306.88
2023-04-18T12:37:25.001Z,99308.88
2023-04-18T12:40:10.470Z,99304.75
2023-04-18T12:42:55.826Z,99301.69
2023-04-18T12:45:40.595Z,99303.22
2023-04-18T12:48:25.423Z,99291.66
2023-04-18T12:51:10.453Z,99292.72
2023-04-18T12:53:55.778Z,99281.56
2023-04-18T12:56:40.499Z,99273.19
2023-04-18T12:59:25.498Z,99269.19
2023-04-18T13:02:10.818Z,99275.59
2023-04-18T13:04:56.725Z,99274.22
2023-04-18T13:07:47.501Z,99269.94
2023-04-18T13:10:32.183Z,99266.56
2023-04-18T13:13:17.164Z,99270.13
2023-04-18T13:16:01.937Z,99269.97
2023-04-18T13:18:46.625Z,99273.44
2023-04-18T13:21:31.422Z,99270.72
2023-04-18T13:24:16.565Z,99262.75
2023-04-18T13:27:03.842Z,99267.44
2023-04-18T13:29:48.572Z,99268.66
2023-04-18T13:32:34.734Z,99260.06
2023-04-18T13:35:19.377Z,99267.94
2023-04-18T13:38:04.359Z,99259.97
2023-04-18T13:40:53.756Z,99249.53
2023-04-18T13:43:46.082Z,99243.75
2023-04-18T13:46:30.873Z,99250.56
2023-04-18T13:49:16.194Z,99257.19
2023-04-18T13:52:01.178Z,99249.13
2023-04-18T13:54:45.839Z,99254.31
2023-04-18T13:57:33.968Z,99259.00
2023-04-18T14:00:19.688Z,99254.97
2023-04-18T14:03:04.705Z,99249.38
2023-04-18T14:05:49.509Z,99252.63
2023-04-18T14:08:34.419Z,99253.13
2023-04-18T14:11:20.329Z,99251.91
2023-04-18T14:14:05.351Z,99248.22
2023-04-18T14:16:50.382Z,99251.16
2023-04-18T14:19:35.175Z,99247.47
2023-04-18T14:22:20.123Z,99247.09
2023-04-18T14:25:05.354Z,99244.22
2023-04-18T14:28:04.493Z,99246.03
2023-04-18T14:30:49.346Z,99246.75
2023-04-18T14:33:34.270Z,99251.31
2023-04-18T14:36:19.252Z,99246.53
2023-04-18T14:39:04.794Z,99255.56
2023-04-18T14:41:49.659Z,99256.69
2023-04-18T14:44:34.564Z,99257.72
2023-04-18T14:47:19.561Z,99257.16
2023-04-18T14:50:11.837Z,99253.66
2023-04-18T14:52:56.553Z,99257.78
2023-04-18T14:55:41.529Z,99260.03
2023-04-18T14:58:26.429Z,99247.75
2023-04-18T15:01:11.901Z,99259.03
2023-04-18T15:03:56.649Z,99261.06
2023-04-18T15:06:41.570Z,99255.56
2023-04-18T15:09:26.538Z,99255.00
2023-04-18T15:12:11.306Z,99264.31
2023-04-18T15:14:56.237Z,99254.94
2023-04-18T15:17:41.095Z,99256.66
2023-04-18T15:20:26.018Z,99261.28
2023-04-18T15:23:13.062Z,99264.84
2023-04-18T15:25:58.774Z,99262.22
2023-04-18T15:28:44.662Z,99267.41
2023-04-18T15:31:30.209Z,99254.16
2023-04-18T15:34:15.542Z,99260.34
2023-04-18T15:37:00.350Z,99250.72
2023-04-18T15:39:45.306Z,99248.09
2023-04-18T15:42:30.382Z,99248.59
2023-04-18T15:45:15.314Z,99250.66
2023-04-18T15:48:00.414Z,99252.41
2023-04-18T15:50:50.200Z,99248.72
2023-04-18T15:53:35.039Z,99251.25
2023-04-18T15:56:20.314Z,99253.47
2023-04-18T15:59:06.207Z,99255.50
2023-04-18T16:01:51.539Z,99261.59
2023-04-18T16:04:36.288Z,99261.78
2023-04-18T16:07:21.190Z,99266.34
2023-04-18T16:10:09.357Z,99262.84
2023-04-18T16:12:54.046Z,99261.72
2023-04-18T16:15:40.933Z,99270.13
2023-04-18T16:18:26.099Z,99274.09
2023-04-18T16:21:14.824Z,99272.84
2023-04-18T16:24:00.028Z,99278.59
2023-04-18T16:26:44.717Z,99279.00
2023-04-18T16:29:29.881Z,99282.44
2023-04-18T16:32:14.558Z,99288.00
2023-04-18T16:34:59.704Z,99281.66
2023-04-18T16:37:44.756Z,99292.59
2023-04-18T16:40:31.299Z,99297.34
2023-04-18T16:43:16.359Z,99295.91
2023-04-18T16:46:01.823Z,99293.38
2023-04-18T16:48:47.366Z,99295.00
2023-04-18T16:51:33.143Z,99292.78
2023-04-18T16:54:17.579Z,99295.72
2023-04-18T16:57:02.761Z,99292.16
2023-04-18T16:59:47.527Z,99288.41
2023-04-18T17:02:32.760Z,99288.84
2023-04-18T17:05:18.166Z,99281.22
2023-04-18T17:08:03.263Z,99289.41
2023-04-18T17:10:51.812Z,99286.97
2023-04-18T17:13:36.545Z,99280.38
2023-04-18T17:16:21.616Z,99287.22
2023-04-18T17:19:07.299Z,99277.00
2023-04-18T17:21:52.108Z,99283.41
2023-04-18T17:24:37.349Z,99288.78
2023-04-18T17:27:22.431Z,99294.63
2023-04-18T17:30:07.784Z,99288.34
2023-04-18T17:32:52.552Z,99288.00
2023-04-18T17:35:40.907Z,99283.75
2023-04-18T17:38:25.727Z,99292.72
2023-04-18T17:41:10.747Z,99286.22
2023-04-18T17:43:57.434Z,99292.28
2023-04-18T17:46:42.267Z,99292.28
2023-04-18T17:49:33.796Z,99302.03
2023-04-18T17:52:18.577Z,99295.97
2023-04-18T17:55:03.556Z,99283.53
2023-04-18T17:57:48.497Z,99287.56
2023-04-18T18:00:33.539Z,99290.34
2023-04-18T18:03:18.975Z,99289.22
2023-04-18T18:06:03.940Z,99285.06
2023-04-18T18:08:48.914Z,99296.38
2023-04-18T18:11:33.510Z,99297.56
2023-04-18T18:14:19.588Z,99302.19
2023-04-18T18:17:05.204Z,99297.47
2023-04-18T18:19:50.143Z,99290.97
2023-04-18T18:22:35.541Z,99297.94
2023-04-18T18:25:21.009Z,99284.47
2023-04-18T18:28:06.596Z,99278.19
2023-04-18T18:30:51.435Z,99281.56
2023-04-18T18:33:36.569Z,99283.34
2023-04-18T18:36:21.212Z,99275.06
2023-04-18T18:39:05.953Z,99276.50
2023-04-18T18:41:51.597Z,99270.78
2023-04-18T18:44:36.357Z,99267.88
2023-04-18T18:47:21.513Z,99265.97
2023-04-18T18:50:07.004Z,99271.34
2023-04-18T18:52:52.414Z,99276.16
2023-04-18T18:55:37.352Z,99268.28
2023-04-18T18:58:22.575Z,99262.25
2023-04-18T19:01:07.706Z,99271.97
2023-04-18T19:03:52.713Z,99271.63
2023-04-18T19:06:37.440Z,99265.78
2023-04-18T19:09:22.367Z,99267.22
2023-04-18T19:12:08.032Z,99270.00
2023-04-18T19:14:53.036Z,99258.56
2023-04-18T19:17:38.260Z,99262.38
2023-04-18T19:20:23.380Z,99271.31
2023-04-18T19:23:07.900Z,99274.34
2023-04-18T19:25:52.897Z,99263.69
2023-04-18T19:28:37.787Z,99265.69
2023-04-18T19:31:23.025Z,99254.81
2023-04-18T19:34:07.913Z,99256.28
2023-04-18T19:36:53.314Z,99259.06
2023-04-18T19:39:38.035Z,99251.78
2023-04-18T19:42:22.641Z,99247.06
2023-04-18T19:45:08.042Z,99250.44
2023-04-18T19:47:52.987Z,99244.94
2023-04-18T19:50:44.120Z,99238.22
2023-04-18T19:53:29.149Z,99236.66
2023-04-18T19:56:14.379Z,99233.28
2023-04-18T19:58:59.438Z,99225.81
2023-04-18T20:01:44.498Z,99236.09
2023-04-18T20:04:30.882Z,99239.44
2023-04-18T20:07:15.820Z,99230.94
2023-04-18T20:10:01.121Z,99234.50
2023-04-18T20:12:46.082Z,99228.81
2023-04-18T20:15:31.965Z,99222.31
2023-04-18T20:18:17.424Z,99226.44
2023-04-18T20:21:03.477Z,99216.59
2023-04-18T20:23:48.481Z,99211.66
2023-04-18T20:26:33.424Z,99213.03
2023-04-18T20:29:19.761Z,99210.44
2023-04-18T20:32:05.710Z,99200.72
2023-04-18T20:34:50.782Z,99202.31
2023-04-18T20:37:36.003Z,99202.66
2023-04-18T20:40:21.233Z,99195.72
2023-04-18T20:43:07.411Z,99193.63
2023-04-18T20:45:53.240Z,99188.63
2023-04-18T20:48:41.043Z,99187.94
2023-04-18T20:51:26.432Z,99182.38
2023-04-18T20:54:11.372Z,99178.38
2023-04-18T20:56:56.386Z,99170.22
2023-04-18T20:59:41.378Z,99154.66
2023-04-18T21:02:26.573Z,99147.75
2023-04-18T21:05:11.404Z,99148.09
2023-04-18T21:07:58.990Z,99140.16
2023-04-18T21:10:43.832Z,99140.94
2023-04-18T21:13:28.545Z,99135.22
2023-04-18T21:16:13.467Z,99137.56
2023-04-18T21:18:58.427Z,99132.31
2023-04-18T21:21:43.384Z,99136.09
2023-04-18T21:24:28.134Z,99127.25
2023-04-18T21:27:15.207Z,99131.16
2023-04-18T21:30:00.916Z,99119.75
2023-04-18T21:32:48.453Z,99117.97
2023-04-18T21:35:33.294Z,99118.41
2023-04-18T21:38:18.208Z,99120.63
2023-04-18T21:41:04.968Z,99107.91
2023-04-18T21:43:50.022Z,99106.56
2023-04-18T21:46:35.015Z,99113.84
2023-04-18T21:49:20.001Z,99106.31
2023-04-18T21:52:05.260Z,99110.47
2023-04-18T21:54:50.218Z,99096.03
2023-04-18T21:57:35.094Z,99102.19
2023-04-18T22:00:19.967Z,99097.81
2023-04-18T22:03:04.976Z,99097.25
2023-04-18T22:05:51.977Z,99084.63
2023-04-18T22:08:36.850Z,99098.06
2023-04-18T22:11:22.958Z,99088.56
2023-04-18T22:14:09.330Z,99104.31
2023-04-18T22:16:54.483Z,99098.97
2023-04-18T22:19:40.973Z,99091.69
2023-04-18T22:22:26.088Z,99085.88
2023-04-18T22:25:11.069Z,99086.78
2023-04-18T22:27:56.273Z,99077.81
2023-04-18T22:30:41.099Z,99087.53
2023-04-18T22:33:26.467Z,99077.69
2023-04-18T22:36:11.252Z,99076.56
2023-04-18T22:38:56.403Z,99074.22
2023-04-18T22:41:41.317Z,99068.72
2023-04-18T22:44:26.293Z,99061.13
2023-04-18T22:47:11.356Z,99058.91
2023-04-18T22:49:56.496Z,99038.66
2023-04-18T22:52:41.420Z,99031.28
2023-04-18T22:55:26.214Z,99022.69
2023-04-18T22:58:11.159Z,99016.53
2023-04-18T23:00:55.724Z,99011.84
2023-04-18T23:03:40.883Z,99010.72
2023-04-18T23:06:27.393Z,99012.16
2023-04-18T23:09:12.212Z,99005.94
2023-04-18T23:11:57.567Z,99007.25
2023-04-18T23:14:42.394Z,99001.22
2023-04-18T23:17:27.347Z,99008.16
2023-04-18T23:20:13.164Z,99000.88
2023-04-18T23:22:58.372Z,98993.50
2023-04-18T23:25:43.586Z,98996.75
2023-04-18T23:28:28.410Z,98992.28
2023-04-18T23:31:13.478Z,98984.66
2023-04-18T23:33:58.741Z,98983.53
2023-04-18T23:36:43.603Z,98970.56
2023-04-18T23:39:28.394Z,98975.13
2023-04-18T23:42:13.444Z,98969.13
2023-04-18T23:44:58.355Z,98962.41
2023-04-18T23:47:43.371Z,98964.19
2023-04-18T23:50:28.452Z,98967.75
2023-04-18T23:53:13.353Z,98960.50
2023-04-18T23:55:58.198Z,98955.38
2023-04-18T23:58:42.588Z,98960.72
